首页
METAR-TAF:

METAR-TAF

机场 :

道格拉斯, 怀俄明州, 美国

纬度: 42-47-39N, 经度: 105-22-55W, 海拔: 1502米

当前天气观测

该预报发布于22分钟前的11:53 UTC
风速5节,风向
温度 -25°C
湿度 76%
气压 1025 hPa
能見度: 16.1公里
天空无云

METAR: KDGW 261153Z AUTO 35005KT 10SM CLR M25/M28 A3026 RMK AO2 SLP362 I1000 I6000 T12501283 11211 21256 58005

时间: 06:15 (12:15 UTC)


TAF: 丢失

超过4000个机场的气象观测和天气预报(METAR&TAF报告)。

可查询的气象台以黄色和红色小点在地图上表示。

将鼠标移到小点上方,可查看气象台名称。

然后点击查看天气观测和预报。

如需切换地图:点击带黑十字的绿色按钮放大地图;点击带横线的绿色按钮缩小地图;或者点击绿色箭头查看邻近地区的地图。


METAR-TAF: